Time;durP1;ratioP1;P1;durP2;ratioP2;P2;SDS_P1;SDS_P2;PMS_P1;PMS_P2;Temp;Humidity;BMP_temperature;BMP_pressure;BME280_temperature;BME280_humidity;BME280_pressure;Samples;Min_cycle;Max_cycle;Signal;HPM_P1;HPM_P2
2022/09/07 00:00:07;;;;;;;4.30;2.00;;;22.70;1.00;;;;;;5079533;28;20198;-75
2022/09/07 00:02:34;;;;;;;6.85;2.25;;;22.70;1.00;;;;;;5079275;28;20193;-73
2022/09/07 00:05:01;;;;;;;4.07;2.40;;;22.70;1.00;;;;;;5081057;28;20217;-72
2022/09/07 00:07:29;;;;;;;6.32;1.90;;;22.70;1.00;;;;;;5081140;28;20232;-72
2022/09/07 00:09:56;;;;;;;6.70;2.30;;;22.70;1.00;;;;;;5081606;28;20285;-73
2022/09/07 00:12:23;;;;;;;4.35;1.98;;;22.80;1.00;;;;;;5063604;28;20248;-72
2022/09/07 00:14:50;;;;;;;5.00;2.25;;;22.80;1.00;;;;;;5065171;28;20244;-72
2022/09/07 00:17:17;;;;;;;4.68;2.22;;;22.70;1.00;;;;;;5069917;23;20235;-81
2022/09/07 00:19:44;;;;;;;5.60;1.90;;;22.70;1.00;;;;;;5031439;28;20196;-81
2022/09/07 00:22:11;;;;;;;5.72;2.40;;;22.70;1.00;;;;;;5046233;28;20195;-83
2022/09/07 00:24:38;;;;;;;10.18;2.58;;;22.70;1.00;;;;;;5041075;28;20203;-79
2022/09/07 00:27:05;;;;;;;5.10;3.08;;;22.70;1.00;;;;;;5026204;28;20245;-79
2022/09/07 00:29:32;;;;;;;6.18;2.13;;;22.80;1.00;;;;;;5025255;28;20200;-80
2022/09/07 00:31:59;;;;;;;6.53;2.38;;;22.80;1.00;;;;;;5027567;28;20200;-81
2022/09/07 00:34:26;;;;;;;7.68;2.20;;;22.60;1.00;;;;;;5058887;28;20191;-82
2022/09/07 00:36:53;;;;;;;6.55;2.33;;;22.50;6.40;;;;;;5053071;28;20195;-79
2022/09/07 00:39:20;;;;;;;10.60;2.30;;;22.50;31.00;;;;;;5040168;28;20187;-81
2022/09/07 00:41:48;;;;;;;5.90;2.30;;;22.50;92.20;;;;;;5047682;28;20196;-80
2022/09/07 00:44:41;;;;;;;6.82;2.50;;;22.20;99.90;;;;;;5033415;28;20195;-80
2022/09/07 00:47:20;;;;;;;11.57;2.35;;;21.80;99.90;;;;;;5007505;28;20442;-79
2022/09/07 00:49:51;;;;;;;10.57;2.20;;;21.70;1.00;;;;;;5052700;28;20666;-78
2022/09/07 00:52:21;;;;;;;11.88;2.95;;;21.50;1.00;;;;;;5052857;28;20716;-78
2022/09/07 00:54:54;;;;;;;18.98;10.95;;;21.60;1.00;;;;;;5034706;28;20206;-79
2022/09/07 00:57:22;;;;;;;18.63;10.18;;;21.20;1.00;;;;;;5016127;28;20187;-80
2022/09/07 00:59:51;;;;;;;16.15;8.55;;;21.30;1.00;;;;;;5037963;28;20199;-79
2022/09/07 01:02:19;;;;;;;13.10;4.68;;;21.30;1.00;;;;;;5035465;28;20188;-80
2022/09/07 01:04:52;;;;;;;7.68;3.25;;;21.20;1.00;;;;;;5035202;28;20192;-80
2022/09/07 01:07:19;;;;;;;11.15;2.20;;;21.20;1.00;;;;;;5021504;28;20235;-79
2022/09/07 01:09:46;;;;;;;8.73;1.67;;;21.10;1.00;;;;;;5053137;28;20227;-79
2022/09/07 01:12:13;;;;;;;7.70;2.05;;;20.90;1.00;;;;;;5049127;28;20207;-78
2022/09/07 01:14:44;;;;;;;10.95;1.83;;;20.80;1.00;;;;;;5032487;28;20226;-78
2022/09/07 01:17:48;;;;;;;11.05;8.20;;;20.70;1.00;;;;;;5046040;28;20230;-78
2022/09/07 01:20:35;;;;;;;6.68;2.20;;;20.90;1.00;;;;;;5032794;28;20196;-78
2022/09/07 01:23:21;;;;;;;14.48;7.28;;;20.80;1.00;;;;;;5038119;28;20208;-78
2022/09/07 01:26:00;;;;;;;10.70;5.50;;;21.10;1.00;;;;;;5035293;28;20187;-78
2022/09/07 01:28:31;;;;;;;11.40;4.00;;;21.20;1.00;;;;;;5037536;28;20265;-78
2022/09/07 01:31:26;;;;;;;14.90;9.13;;;21.20;1.00;;;;;;5050139;28;20290;-78
2022/09/07 01:34:21;;;;;;;18.88;8.80;;;21.10;1.00;;;;;;5053611;28;20204;-79
2022/09/07 01:37:07;;;;;;;26.15;15.65;;;20.90;1.00;;;;;;5037431;28;20689;-79
2022/09/07 01:40:03;;;;;;;13.32;9.20;;;21.00;1.00;;;;;;5038995;28;20199;-79
2022/09/07 01:42:38;;;;;;;6.03;3.70;;;21.00;1.00;;;;;;5030584;28;20808;-79
2022/09/07 01:45:11;;;;;;;7.05;2.60;;;21.20;1.00;;;;;;5066044;28;20515;-79
2022/09/07 01:47:44;;;;;;;4.15;2.08;;;21.20;1.00;;;;;;5037036;28;20396;-79
2022/09/07 01:50:20;;;;;;;4.55;1.98;;;21.30;1.00;;;;;;5054515;28;20673;-79
2022/09/07 01:53:03;;;;;;;10.23;2.10;;;21.30;1.00;;;;;;5036898;28;20198;-78
2022/09/07 01:55:39;;;;;;;17.08;8.13;;;21.20;1.00;;;;;;5039445;28;20274;-79
2022/09/07 01:58:26;;;;;;;13.13;9.50;;;21.10;1.00;;;;;;5038086;28;20293;-79
2022/09/07 02:01:09;;;;;;;16.05;10.73;;;21.00;1.00;;;;;;5068221;28;20187;-78
2022/09/07 02:03:48;;;;;;;7.28;4.72;;;21.00;1.00;;;;;;5037496;28;20191;-79
2022/09/07 02:06:46;;;;;;;6.32;5.00;;;21.00;1.00;;;;;;5073226;28;20191;-79
2022/09/07 02:09:24;;;;;;;7.93;5.78;;;21.10;1.00;;;;;;5030852;28;20246;-79
2022/09/07 02:11:53;;;;;;;14.70;12.18;;;21.00;1.00;;;;;;5056434;28;20229;-79
2022/09/07 02:14:35;;;;;;;13.35;8.55;;;21.00;1.00;;;;;;5079188;22;20192;31
2022/09/07 02:17:17;;;;;;;6.03;3.40;;;20.80;1.00;;;;;;5003542;28;20227;-72
2022/09/07 02:19:50;;;;;;;3.55;2.47;;;20.80;6.10;;;;;;4980456;28;20849;-71
2022/09/07 02:22:23;;;;;;;3.22;1.95;;;20.70;91.10;;;;;;5005006;28;20200;-72
2022/09/07 02:24:54;;;;;;;4.22;1.33;;;20.60;1.00;;;;;;5000986;28;20200;-72
2022/09/07 02:27:46;;;;;;;2.67;2.03;;;20.00;99.90;;;;;;4991659;28;20200;-69
2022/09/07 02:30:13;;;;;;;4.82;2.00;;;19.20;1.00;;;;;;4973039;28;20208;-68
2022/09/07 02:32:41;;;;;;;7.18;2.20;;;18.60;99.90;;;;;;5005887;28;20605;-67
2022/09/07 02:35:08;;;;;;;6.38;2.10;;;18.40;1.00;;;;;;5003249;28;20201;-67
2022/09/07 02:37:37;;;;;;;6.38;3.22;;;18.10;99.90;;;;;;5002838;28;20232;-67
2022/09/07 02:40:04;;;;;;;16.98;9.15;;;18.10;99.90;;;;;;5003198;28;20200;-68
2022/09/07 02:42:33;;;;;;;13.02;10.20;;;18.40;90.40;;;;;;4987094;28;20734;-65
2022/09/07 02:45:04;;;;;;;11.60;7.47;;;18.40;99.90;;;;;;4999550;28;20205;-70
2022/09/07 02:47:49;;;;;;;5.63;3.53;;;18.50;99.90;;;;;;4982603;28;20228;-72
2022/09/07 02:50:55;;;;;;;5.88;3.22;;;18.60;99.90;;;;;;4981518;28;20200;-73
2022/09/07 02:53:33;;;;;;;5.72;2.20;;;18.60;1.00;;;;;;4909240;29;20251;-73
2022/09/07 02:56:10;;;;;;;6.60;2.50;;;18.60;1.00;;;;;;4908371;29;21269;-74
2022/09/07 02:59:02;;;;;;;5.18;2.10;;;18.60;1.00;;;;;;4959561;28;20255;-73
2022/09/07 03:01:38;;;;;;;5.85;1.77;;;18.90;99.90;;;;;;4996768;28;20197;-73
2022/09/07 03:04:22;;;;;;;4.72;1.70;;;18.90;1.00;;;;;;5003137;28;20267;-74
2022/09/07 03:07:11;;;;;;;4.68;2.17;;;18.80;38.10;;;;;;4982574;28;20275;-71
2022/09/07 03:09:42;;;;;;;4.53;1.90;;;19.00;1.00;;;;;;4983299;28;20221;-70
2022/09/07 03:12:10;;;;;;;3.20;1.52;;;19.10;1.00;;;;;;5001910;28;20216;-71
2022/09/07 03:14:40;;;;;;;4.57;1.55;;;19.10;1.00;;;;;;5004535;28;20209;-68
2022/09/07 03:17:08;;;;;;;4.53;2.00;;;19.00;1.00;;;;;;4981479;28;20208;-73
2022/09/07 03:19:35;;;;;;;12.43;1.77;;;19.10;1.00;;;;;;5003006;28;20205;-73
2022/09/07 03:22:03;;;;;;;4.13;2.35;;;19.00;57.60;;;;;;4964978;28;20275;-74
2022/09/07 03:24:31;;;;;;;2.78;1.48;;;19.10;1.00;;;;;;5001924;28;20198;-74
2022/09/07 03:26:59;;;;;;;5.35;1.55;;;19.10;1.00;;;;;;4985578;28;20719;-73
2022/09/07 03:29:26;;;;;;;4.50;1.92;;;18.80;1.00;;;;;;4985513;28;20214;-73
2022/09/07 03:31:53;;;;;;;9.48;1.73;;;18.80;1.00;;;;;;4984960;28;20196;-73
2022/09/07 03:34:20;;;;;;;4.38;1.80;;;18.70;99.90;;;;;;5005739;28;20536;-74
2022/09/07 03:36:47;;;;;;;6.55;2.20;;;18.40;99.90;;;;;;4984694;28;20214;-73
2022/09/07 03:39:14;;;;;;;5.82;1.60;;;18.00;1.00;;;;;;5004108;28;20197;-73
2022/09/07 03:41:41;;;;;;;6.10;2.25;;;17.90;25.20;;;;;;5002817;28;20213;-73
2022/09/07 03:44:08;;;;;;;4.95;1.80;;;17.90;1.00;;;;;;4989871;28;20217;-73
2022/09/07 03:46:35;;;;;;;2.83;1.73;;;17.70;1.00;;;;;;5007713;28;20200;-73
2022/09/07 03:49:02;;;;;;;3.63;1.85;;;17.70;1.00;;;;;;4995427;28;20236;-73
2022/09/07 03:51:30;;;;;;;6.53;2.15;;;17.70;1.00;;;;;;4980576;28;20267;-74
2022/09/07 03:53:58;;;;;;;6.63;1.90;;;17.70;1.00;;;;;;5004290;28;20260;-74
2022/09/07 03:56:25;;;;;;;3.13;1.73;;;17.80;1.00;;;;;;5004185;28;20267;-74
2022/09/07 03:58:53;;;;;;;5.10;2.25;;;17.90;1.00;;;;;;4959580;28;20805;-74
2022/09/07 04:01:23;;;;;;;4.03;2.10;;;17.90;99.90;;;;;;4972565;28;20197;-74
2022/09/07 04:03:50;;;;;;;4.18;1.92;;;18.00;99.90;;;;;;5016186;28;20201;-74
2022/09/07 04:06:18;;;;;;;4.22;2.40;;;18.10;55.50;;;;;;5000927;28;20197;-74
2022/09/07 04:08:45;;;;;;;3.93;2.03;;;18.00;58.20;;;;;;5001001;28;20272;-73
2022/09/07 04:11:15;;;;;;;4.10;2.00;;;18.00;1.00;;;;;;4981286;28;20697;-73
2022/09/07 04:13:42;;;;;;;7.78;2.20;;;17.90;55.80;;;;;;5001076;28;20974;-74
2022/09/07 04:16:13;;;;;;;4.57;2.25;;;18.00;50.20;;;;;;4999830;28;20232;-74
2022/09/07 04:18:40;;;;;;;2.72;1.60;;;18.00;1.00;;;;;;4998029;28;20264;-73
2022/09/07 04:21:08;;;;;;;6.63;2.03;;;18.00;99.90;;;;;;4983352;28;20216;-73
2022/09/07 04:23:39;;;;;;;2.50;1.80;;;18.20;99.90;;;;;;4983354;28;20294;-73
2022/09/07 04:26:13;;;;;;;6.22;2.20;;;18.00;1.00;;;;;;4999746;28;20592;-73
2022/09/07 04:28:41;;;;;;;2.08;1.65;;;17.90;1.00;;;;;;4998960;28;20299;-73
2022/09/07 04:31:08;;;;;;;4.78;1.75;;;17.80;83.30;;;;;;5000694;28;20192;-73
2022/09/07 04:33:35;;;;;;;5.88;1.90;;;17.80;46.80;;;;;;4998471;28;20292;-73
2022/09/07 04:36:03;;;;;;;4.63;2.15;;;17.80;99.90;;;;;;4990857;28;20230;-75
2022/09/07 04:38:30;;;;;;;2.55;1.88;;;17.70;99.90;;;;;;4980430;28;20208;-75
2022/09/07 04:41:05;;;;;;;4.38;1.92;;;17.50;99.90;;;;;;4980756;28;20220;-76
2022/09/07 04:43:32;;;;;;;7.18;1.88;;;17.70;99.90;;;;;;4982332;28;20212;-75
2022/09/07 04:46:04;;;;;;;5.20;1.77;;;17.70;99.90;;;;;;5001892;28;20612;-76
2022/09/07 04:48:32;;;;;;;5.03;1.85;;;17.90;99.90;;;;;;4999200;28;20213;-76
2022/09/07 04:51:07;;;;;;;4.93;1.90;;;18.20;1.00;;;;;;5001397;28;20200;-75
2022/09/07 04:53:36;;;;;;;4.45;2.03;;;18.30;99.90;;;;;;5000507;28;20208;-74
2022/09/07 04:56:03;;;;;;;3.75;1.90;;;18.40;1.00;;;;;;4979357;28;20659;-74
2022/09/07 04:58:31;;;;;;;4.65;1.83;;;18.20;1.00;;;;;;4966089;28;20216;-74
2022/09/07 05:01:03;;;;;;;4.68;2.00;;;18.20;1.00;;;;;;4982056;28;20208;-74
2022/09/07 05:03:32;;;;;;;4.97;2.30;;;18.20;1.00;;;;;;5000863;28;20690;-73
2022/09/07 05:06:00;;;;;;;3.75;1.70;;;18.40;1.00;;;;;;5006093;28;20260;-73
2022/09/07 05:08:27;;;;;;;4.25;1.90;;;18.40;44.30;;;;;;5002839;28;20299;-75
2022/09/07 05:10:56;;;;;;;3.58;2.00;;;18.40;99.90;;;;;;5005767;28;20224;-75
2022/09/07 05:13:24;;;;;;;5.60;1.60;;;18.40;99.90;;;;;;4992822;28;20236;-75
2022/09/07 05:15:51;;;;;;;4.18;1.90;;;18.50;99.90;;;;;;5005066;28;20418;-75
2022/09/07 05:18:18;;;;;;;3.72;2.28;;;18.80;1.00;;;;;;5009691;28;20201;-75
2022/09/07 05:20:45;;;;;;;3.40;1.80;;;18.80;1.00;;;;;;5006654;28;20267;-75
2022/09/07 05:23:12;;;;;;;7.88;2.40;;;18.90;99.90;;;;;;5008450;28;20260;-73
2022/09/07 05:25:44;;;;;;;5.63;2.33;;;18.70;1.00;;;;;;5006563;28;20197;-74
2022/09/07 05:28:12;;;;;;;6.68;2.90;;;18.70;1.00;;;;;;5000633;28;20197;-74
2022/09/07 05:30:45;;;;;;;2.30;2.10;;;18.60;1.00;;;;;;4988628;28;20759;-74
2022/09/07 05:33:33;;;;;;;5.03;2.17;;;18.70;1.00;;;;;;5005765;28;20279;-73
2022/09/07 05:36:21;;;;;;;2.55;2.00;;;18.80;99.90;;;;;;4989302;28;20237;-74
2022/09/07 05:38:48;;;;;;;4.30;2.33;;;18.90;99.90;;;;;;5004781;28;20581;-73
2022/09/07 05:41:20;;;;;;;4.47;2.22;;;19.10;99.90;;;;;;5018346;28;20256;-74
2022/09/07 05:43:48;;;;;;;6.35;2.45;;;19.30;99.90;;;;;;4986745;28;20300;-74
2022/09/07 05:46:35;;;;;;;6.05;1.92;;;19.40;1.00;;;;;;5003946;28;20818;-74
2022/09/07 05:49:02;;;;;;;3.67;1.67;;;19.60;52.70;;;;;;5005811;28;20225;-74
2022/09/07 05:51:29;;;;;;;4.35;1.95;;;19.60;1.00;;;;;;4985407;28;20209;-75
2022/09/07 05:53:56;;;;;;;5.78;2.20;;;19.80;1.00;;;;;;5000995;28;20200;-74
2022/09/07 05:56:23;;;;;;;3.90;2.50;;;20.10;1.00;;;;;;4984964;28;20201;-74
2022/09/07 05:58:50;;;;;;;7.20;2.10;;;20.80;1.00;;;;;;5001102;28;20212;-74
2022/09/07 06:01:17;;;;;;;3.78;1.95;;;21.70;99.90;;;;;;4977391;28;20223;-75
2022/09/07 06:03:44;;;;;;;5.43;2.25;;;22.30;1.00;;;;;;4985198;28;20207;-74
2022/09/07 06:06:17;;;;;;;3.03;2.00;;;22.30;1.00;;;;;;5004882;28;20193;-75
2022/09/07 06:08:53;;;;;;;9.93;2.03;;;22.50;1.00;;;;;;4972779;28;20220;-75
2022/09/07 06:11:21;;;;;;;4.35;2.05;;;23.30;1.00;;;;;;5005468;28;20211;-75
2022/09/07 06:13:49;;;;;;;3.28;1.95;;;23.30;1.00;;;;;;4986067;28;20196;-75
2022/09/07 06:16:17;;;;;;;6.10;2.03;;;23.40;1.00;;;;;;4980295;28;20233;-75
2022/09/07 06:18:47;;;;;;;3.22;2.20;;;23.60;1.00;;;;;;5004064;28;20205;-75
2022/09/07 06:21:14;;;;;;;11.43;2.38;;;23.50;1.00;;;;;;4983535;28;20211;-74
2022/09/07 06:23:42;;;;;;;5.25;2.00;;;24.00;1.00;;;;;;5003763;28;20675;-75
2022/09/07 06:26:10;;;;;;;5.00;2.17;;;25.70;99.90;;;;;;5002593;28;20201;-75
2022/09/07 06:28:42;;;;;;;3.33;2.15;;;26.20;99.90;;;;;;5002390;28;20244;-75
2022/09/07 06:31:12;;;;;;;3.70;1.90;;;26.60;98.10;;;;;;4985439;28;20205;-75
2022/09/07 06:33:41;;;;;;;4.55;1.90;;;26.50;54.90;;;;;;5001566;28;20203;-75
2022/09/07 06:36:13;;;;;;;4.57;2.00;;;25.40;99.90;;;;;;5000988;28;20201;-75
2022/09/07 06:38:41;;;;;;;3.00;1.80;;;25.80;99.90;;;;;;4981169;28;20189;-75
2022/09/07 06:41:10;;;;;;;6.45;1.98;;;26.30;99.90;;;;;;4985788;28;20208;-75
2022/09/07 06:43:58;;;;;;;6.03;2.50;;;27.20;44.30;;;;;;4982858;28;20282;-75
2022/09/07 06:46:25;;;;;;;3.97;2.10;;;26.00;58.20;;;;;;4999786;28;20278;-75
2022/09/07 06:49:12;;;;;;;3.03;1.88;;;25.70;99.90;;;;;;5014558;28;21117;-75
2022/09/07 06:51:39;;;;;;;2.70;1.77;;;26.40;99.90;;;;;;4998974;28;20209;-76
2022/09/07 06:54:06;;;;;;;2.53;1.80;;;27.10;63.00;;;;;;4989666;28;20205;-75
2022/09/07 06:56:54;;;;;;;5.70;2.00;;;27.00;39.00;;;;;;5004876;28;20711;-76
2022/09/07 06:59:21;;;;;;;4.70;2.10;;;28.20;4.70;;;;;;4989488;28;20259;-76
2022/09/07 07:01:48;;;;;;;3.28;1.95;;;29.00;1.00;;;;;;5006744;28;20221;-76
2022/09/07 07:04:15;;;;;;;2.70;2.00;;;30.00;1.00;;;;;;4984960;28;20201;-76
2022/09/07 07:06:42;;;;;;;2.85;1.60;;;30.40;1.00;;;;;;4978936;28;20623;-75
2022/09/07 07:09:12;;;;;;;4.65;2.10;;;30.60;1.00;;;;;;4985060;28;20236;-76
2022/09/07 07:11:42;;;;;;;7.30;2.15;;;31.50;1.00;;;;;;4997563;28;20556;-75
2022/09/07 07:14:14;;;;;;;3.67;1.77;;;31.90;1.00;;;;;;4980624;28;20197;-75
2022/09/07 07:16:41;;;;;;;6.07;2.08;;;33.40;1.00;;;;;;4982243;28;20228;-76
2022/09/07 07:19:09;;;;;;;5.65;2.35;;;34.20;1.00;;;;;;5021425;28;20479;-75
2022/09/07 07:21:36;;;;;;;4.57;1.85;;;34.20;1.00;;;;;;4985014;28;20531;-76
2022/09/07 07:24:23;;;;;;;4.70;1.80;;;35.40;1.00;;;;;;4982038;28;20312;-78
2022/09/07 07:26:50;;;;;;;2.72;1.70;;;36.90;1.00;;;;;;5000353;28;20200;-79
2022/09/07 07:29:17;;;;;;;2.45;1.58;;;39.00;1.00;;;;;;4968966;28;20236;-78
2022/09/07 07:31:45;;;;;;;3.05;1.80;;;38.90;1.00;;;;;;4983816;28;20234;-79
2022/09/07 07:34:14;;;;;;;4.50;1.83;;;40.50;1.00;;;;;;4983754;28;20255;-77
2022/09/07 07:36:41;;;;;;;3.75;1.90;;;40.60;1.00;;;;;;4985085;28;20196;-77
2022/09/07 07:39:08;;;;;;;3.78;1.70;;;37.30;1.00;;;;;;5009241;28;21077;-80
2022/09/07 07:41:55;;;;;;;3.97;1.80;;;36.40;1.00;;;;;;5004687;28;20197;-78
2022/09/07 07:44:29;;;;;;;3.83;1.63;;;36.20;1.00;;;;;;5021616;28;20200;-78
2022/09/07 07:46:56;;;;;;;2.63;1.80;;;37.20;1.00;;;;;;4992234;28;20421;-78
2022/09/07 07:49:26;;;;;;;3.63;2.08;;;37.30;1.00;;;;;;4984640;28;20245;-80
2022/09/07 07:51:54;;;;;;;2.58;1.90;;;38.00;1.00;;;;;;4985214;28;20636;-77
2022/09/07 07:54:42;;;;;;;2.10;1.83;;;35.60;1.00;;;;;;4987925;28;20212;-78
2022/09/07 07:57:10;;;;;;;5.80;1.90;;;34.40;1.00;;;;;;4989560;28;20225;-82
2022/09/07 07:59:38;;;;;;;3.58;1.70;;;35.80;1.00;;;;;;5004154;28;20229;-79
2022/09/07 08:02:07;;;;;;;5.60;1.50;;;35.70;1.00;;;;;;5011161;28;20255;-76
2022/09/07 08:04:35;;;;;;;4.10;1.50;;;37.30;1.00;;;;;;5019875;28;20256;-78
2022/09/07 08:07:02;;;;;;;3.90;1.88;;;36.80;1.00;;;;;;4991174;28;20208;-77
2022/09/07 08:09:41;;;;;;;3.95;1.42;;;36.30;1.00;;;;;;5005665;28;20234;-74
2022/09/07 08:12:10;;;;;;;2.33;1.30;;;37.70;1.00;;;;;;5003049;28;20295;-75
2022/09/07 08:14:41;;;;;;;2.80;1.40;;;35.30;1.00;;;;;;4983449;28;20211;-75
2022/09/07 08:17:09;;;;;;;6.30;1.55;;;34.80;1.00;;;;;;4998537;28;20227;-75
2022/09/07 08:19:37;;;;;;;5.53;1.98;;;33.30;1.00;;;;;;4987205;28;20195;-74
2022/09/07 08:22:04;;;;;;;2.92;1.90;;;29.90;1.00;;;;;;5003907;28;20205;-75
2022/09/07 08:24:32;;;;;;;6.65;2.03;;;29.30;1.00;;;;;;5002045;28;20211;-73
2022/09/07 08:26:59;;;;;;;5.88;1.65;;;29.80;1.00;;;;;;4981048;28;20208;-73
2022/09/07 08:29:27;;;;;;;5.18;1.92;;;29.80;1.00;;;;;;5000370;28;20232;-73
2022/09/07 08:31:59;;;;;;;3.08;1.98;;;29.50;1.00;;;;;;5001894;28;20845;-73
2022/09/07 08:34:26;;;;;;;3.15;1.67;;;29.20;1.00;;;;;;4992835;28;20205;-74
2022/09/07 08:36:55;;;;;;;4.40;1.95;;;29.20;1.00;;;;;;4978236;28;20644;-75
2022/09/07 08:39:22;;;;;;;2.47;1.58;;;29.60;1.00;;;;;;5003948;28;20201;-75
2022/09/07 08:41:53;;;;;;;3.60;1.85;;;29.90;1.00;;;;;;4986503;28;20243;-75
2022/09/07 08:44:34;;;;;;;3.65;1.63;;;30.70;1.00;;;;;;4987800;28;20219;-75
2022/09/07 08:47:20;;;;;;;5.97;1.58;;;30.80;1.00;;;;;;4981400;28;20201;-75
2022/09/07 08:50:27;;;;;;;3.15;1.75;;;30.30;1.00;;;;;;4967588;28;20209;-75
2022/09/07 08:53:03;;;;;;;3.85;1.90;;;28.50;1.00;;;;;;4995485;28;20648;-75
2022/09/07 08:55:55;;;;;;;3.17;1.80;;;29.00;1.00;;;;;;5008439;28;20220;-75
2022/09/07 08:58:30;;;;;;;2.13;1.75;;;29.10;1.00;;;;;;4991837;28;20878;-75
2022/09/07 09:01:22;;;;;;;4.30;2.00;;;28.80;1.00;;;;;;5009339;28;20268;-75
2022/09/07 09:03:57;;;;;;;2.83;2.13;;;28.50;1.00;;;;;;4990254;28;20647;-75
2022/09/07 09:07:04;;;;;;;2.70;2.30;;;28.20;1.00;;;;;;5009436;28;20201;-75
2022/09/07 09:09:57;;;;;;;2.95;2.30;;;27.00;1.00;;;;;;4986330;28;20221;-75
2022/09/07 09:12:39;;;;;;;4.82;2.47;;;25.90;14.70;;;;;;4968585;28;20197;-74
2022/09/07 09:15:32;;;;;;;2.47;1.80;;;26.70;1.00;;;;;;4995135;28;20672;-75
2022/09/07 09:18:31;;;;;;;6.68;2.15;;;27.00;1.00;;;;;;4980055;28;20683;-74
2022/09/07 09:20:59;;;;;;;4.90;2.30;;;27.20;1.00;;;;;;4983009;28;20782;-75
2022/09/07 09:23:33;;;;;;;4.28;1.83;;;27.10;1.00;;;;;;5005139;28;20216;-75
2022/09/07 09:26:24;;;;;;;3.45;2.33;;;26.90;1.00;;;;;;5006360;28;20203;-75
2022/09/07 09:28:51;;;;;;;4.18;2.00;;;26.90;1.00;;;;;;4986461;28;20197;-75
2022/09/07 09:31:20;;;;;;;3.10;2.22;;;26.10;1.00;;;;;;5005942;28;20223;-75
2022/09/07 09:34:16;;;;;;;7.45;2.22;;;25.30;51.90;;;;;;5011171;28;20205;-75
2022/09/07 09:36:45;;;;;;;4.35;2.25;;;25.50;59.50;;;;;;4982630;28;20605;-75
2022/09/07 09:39:31;;;;;;;3.53;2.10;;;25.60;55.80;;;;;;4970081;28;20199;-75
2022/09/07 09:42:11;;;;;;;7.32;2.30;;;25.90;34.40;;;;;;5008947;28;20207;-76
2022/09/07 09:44:38;;;;;;;2.83;2.40;;;26.00;38.10;;;;;;5005678;28;20204;-75
2022/09/07 09:47:16;;;;;;;9.10;2.80;;;26.10;27.30;;;;;;5005488;28;20252;-75
2022/09/07 09:50:16;;;;;;;3.17;2.75;;;26.50;14.00;;;;;;5008290;28;20304;-74
2022/09/07 09:53:05;;;;;;;4.20;3.10;;;28.30;1.00;;;;;;4994043;28;20203;-75
2022/09/07 09:55:35;;;;;;;5.90;4.28;;;29.10;1.00;;;;;;4989910;28;20189;-75
2022/09/07 09:58:06;;;;;;;5.93;3.10;;;29.50;1.00;;;;;;4980897;28;20251;-74
2022/09/07 10:00:55;;;;;;;10.35;6.72;;;28.20;1.00;;;;;;5005107;28;20210;-75
2022/09/07 10:03:42;;;;;;;5.28;3.80;;;27.90;1.00;;;;;;5003486;28;20220;-75
2022/09/07 10:06:28;;;;;;;9.32;5.60;;;28.20;1.00;;;;;;5009681;28;20188;-75
2022/09/07 10:09:00;;;;;;;5.90;4.45;;;28.40;1.00;;;;;;4993252;28;20313;-75
2022/09/07 10:11:47;;;;;;;9.90;5.10;;;28.50;1.00;;;;;;4985532;28;20221;-76
2022/09/07 10:14:46;;;;;;;5.45;4.80;;;28.70;1.00;;;;;;4991376;28;20755;-75
2022/09/07 10:17:31;;;;;;;4.78;3.47;;;28.30;1.00;;;;;;4998587;28;20283;-75
2022/09/07 10:20:00;;;;;;;5.97;3.10;;;29.70;1.00;;;;;;4980860;28;20239;-74
2022/09/07 10:22:35;;;;;;;5.75;3.05;;;31.80;1.00;;;;;;4988072;28;20201;-75
2022/09/07 10:25:24;;;;;;;4.00;2.90;;;33.10;1.00;;;;;;5001107;28;20211;-74
2022/09/07 10:28:12;;;;;;;5.60;2.85;;;30.20;1.00;;;;;;4985050;28;20267;-71
2022/09/07 10:30:45;;;;;;;5.60;3.42;;;30.40;1.00;;;;;;4967202;28;20313;-69
2022/09/07 10:33:24;;;;;;;5.35;3.05;;;31.60;1.00;;;;;;5006036;28;20201;-71
2022/09/07 10:36:10;;;;;;;5.40;3.00;;;33.80;1.00;;;;;;4986837;28;20291;-71
2022/09/07 10:38:49;;;;;;;3.83;2.58;;;34.60;1.00;;;;;;4969847;28;20334;-69
2022/09/07 10:41:21;;;;;;;3.55;2.58;;;36.20;1.00;;;;;;4986279;28;20235;-69
2022/09/07 10:43:49;;;;;;;5.40;2.53;;;34.10;1.00;;;;;;5017799;28;20200;-70
2022/09/07 10:46:28;;;;;;;3.92;2.47;;;35.80;1.00;;;;;;5003089;28;20379;-69
2022/09/07 10:49:20;;;;;;;4.38;2.40;;;35.00;1.00;;;;;;4988559;28;20199;-70
2022/09/07 10:51:53;;;;;;;3.08;2.22;;;36.80;1.00;;;;;;4980198;28;20271;-74
2022/09/07 10:54:32;;;;;;;2.28;2.08;;;37.00;1.00;;;;;;5005330;28;20204;-73
2022/09/07 10:57:27;;;;;;;6.45;2.53;;;32.40;1.00;;;;;;5008599;28;20651;-73
2022/09/07 11:00:12;;;;;;;4.70;2.05;;;31.50;1.00;;;;;;4993350;28;20275;-72
2022/09/07 11:02:58;;;;;;;2.80;2.10;;;31.40;1.00;;;;;;4969332;28;20209;-74
2022/09/07 11:06:04;;;;;;;4.25;2.83;;;30.90;1.00;;;;;;4986081;28;20204;-74
2022/09/07 11:08:48;;;;;;;9.45;3.50;;;30.50;1.00;;;;;;4986807;28;20272;-73
2022/09/07 11:11:43;;;;;;;4.78;3.53;;;31.00;1.00;;;;;;5000391;28;20263;-74
2022/09/07 11:14:44;;;;;;;3.72;3.28;;;31.50;1.00;;;;;;4999606;28;20215;-74
2022/09/07 11:17:24;;;;;;;3.78;2.92;;;32.30;1.00;;;;;;4986083;28;20189;-73
2022/09/07 11:20:17;;;;;;;3.88;3.22;;;32.90;1.00;;;;;;5001608;28;20204;-73
2022/09/07 11:22:49;;;;;;;5.53;3.30;;;32.60;1.00;;;;;;5000733;28;20201;-74
2022/09/07 11:25:25;;;;;;;3.88;3.25;;;32.40;1.00;;;;;;4972122;28;20215;-74
2022/09/07 11:28:07;;;;;;;5.65;4.72;;;32.60;1.00;;;;;;5003715;28;20239;-74
2022/09/07 11:30:41;;;;;;;5.80;4.03;;;29.50;1.00;;;;;;5004159;28;20312;-74
2022/09/07 11:33:14;;;;;;;7.07;3.80;;;28.80;1.00;;;;;;5006953;28;20224;-75
2022/09/07 11:35:53;;;;;;;3.92;2.95;;;30.40;1.00;;;;;;4983369;28;20686;-73
2022/09/07 11:38:26;;;;;;;4.68;2.85;;;31.60;1.00;;;;;;5001627;28;20848;-75
2022/09/07 11:41:17;;;;;;;5.28;2.70;;;32.50;1.00;;;;;;5000645;28;20267;-75
2022/09/07 11:43:56;;;;;;;3.97;3.38;;;32.00;1.00;;;;;;4981067;28;20266;-74
2022/09/07 11:46:38;;;;;;;7.10;3.67;;;31.80;1.00;;;;;;4965208;28;20883;-74
2022/09/07 11:49:18;;;;;;;5.60;3.80;;;31.10;1.00;;;;;;4989629;28;20205;-75
2022/09/07 11:51:57;;;;;;;5.43;4.45;;;31.00;1.00;;;;;;4997032;28;20213;-76
2022/09/07 11:54:40;;;;;;;6.80;3.72;;;31.00;1.00;;;;;;4969803;28;20197;-74
2022/09/07 11:57:14;;;;;;;7.75;4.20;;;30.50;1.00;;;;;;5008621;28;20204;-76
2022/09/07 11:59:53;;;;;;;4.68;3.50;;;29.90;1.00;;;;;;4989304;28;20724;-74
2022/09/07 12:02:36;;;;;;;5.28;4.00;;;29.40;1.00;;;;;;4988818;28;20203;-75
2022/09/07 12:05:40;;;;;;;4.45;3.90;;;28.70;1.00;;;;;;4971059;28;20315;-75
2022/09/07 12:08:45;;;;;;;5.15;3.55;;;29.60;1.00;;;;;;4974975;28;20799;-75
2022/09/07 12:11:30;;;;;;;4.43;3.50;;;30.40;1.00;;;;;;4976780;28;20231;-74
2022/09/07 12:14:20;;;;;;;4.25;3.50;;;30.50;1.00;;;;;;4992398;28;20260;-75
2022/09/07 12:17:13;;;;;;;4.97;4.43;;;31.30;1.00;;;;;;5002006;28;20236;-75
2022/09/07 12:19:41;;;;;;;8.93;4.55;;;32.10;1.00;;;;;;4967732;28;20604;-75
2022/09/07 12:22:20;;;;;;;5.82;5.05;;;32.00;1.00;;;;;;4974378;28;20231;-74
2022/09/07 12:24:52;;;;;;;6.38;5.13;;;31.30;1.00;;;;;;4991803;28;20201;-74
2022/09/07 12:27:19;;;;;;;5.88;5.35;;;31.00;1.00;;;;;;5014513;28;20196;-74
2022/09/07 12:30:12;;;;;;;6.50;5.88;;;30.60;1.00;;;;;;5014532;28;20227;-74
2022/09/07 12:32:55;;;;;;;6.57;5.43;;;30.60;1.00;;;;;;4998459;28;20196;-71
2022/09/07 12:35:27;;;;;;;5.22;4.70;;;30.90;1.00;;;;;;4997539;28;20235;-71
2022/09/07 12:37:55;;;;;;;5.07;4.57;;;30.50;1.00;;;;;;4996266;28;20271;-72
2022/09/07 12:40:34;;;;;;;5.00;4.60;;;30.30;1.00;;;;;;5012473;28;20255;-72
2022/09/07 12:43:13;;;;;;;6.40;4.43;;;30.50;1.00;;;;;;5011814;28;20263;-72
2022/09/07 12:45:41;;;;;;;6.68;5.40;;;30.20;1.00;;;;;;4994916;28;21199;-72
2022/09/07 12:48:13;;;;;;;6.78;5.90;;;29.90;1.00;;;;;;5013094;28;20283;-71
2022/09/07 12:50:52;;;;;;;7.88;5.38;;;29.60;1.00;;;;;;5014505;28;20255;-69
2022/09/07 12:53:33;;;;;;;5.72;4.75;;;29.10;1.00;;;;;;5013942;28;20188;-70
2022/09/07 12:56:09;;;;;;;6.30;5.15;;;29.50;1.00;;;;;;4996743;28;20200;-70
2022/09/07 12:59:08;;;;;;;5.80;5.18;;;29.10;1.00;;;;;;4998623;28;20192;-71
2022/09/07 13:02:15;;;;;;;6.63;4.88;;;28.70;1.00;;;;;;5013798;28;20610;-71
2022/09/07 13:04:56;;;;;;;5.32;4.85;;;28.80;1.00;;;;;;5010077;28;20213;-70
2022/09/07 13:07:45;;;;;;;6.18;5.03;;;28.90;1.00;;;;;;5013076;28;20215;-71
2022/09/07 13:10:32;;;;;;;5.32;4.82;;;28.80;1.00;;;;;;5010569;28;20231;-72
2022/09/07 13:13:20;;;;;;;6.13;4.70;;;28.70;1.00;;;;;;4992912;28;20247;-70
2022/09/07 13:16:10;;;;;;;6.18;4.80;;;28.50;1.00;;;;;;4997579;28;20240;-70
2022/09/07 13:18:42;;;;;;;5.70;4.40;;;28.60;1.00;;;;;;4996428;28;20196;-73
2022/09/07 13:21:10;;;;;;;5.40;4.90;;;28.60;1.00;;;;;;4981157;28;20277;-74
2022/09/07 13:23:39;;;;;;;6.10;5.10;;;28.50;1.00;;;;;;5001416;28;20208;-74
2022/09/07 13:26:10;;;;;;;6.90;4.60;;;28.60;1.00;;;;;;5015351;28;21010;-72
2022/09/07 13:29:01;;;;;;;4.40;4.00;;;28.70;1.00;;;;;;4997333;28;20327;-73
2022/09/07 13:31:37;;;;;;;5.00;4.45;;;28.80;1.00;;;;;;4971459;28;20316;-73
2022/09/07 13:34:32;;;;;;;4.45;3.95;;;28.50;1.00;;;;;;5000054;28;20207;-73